Time;durP1;ratioP1;P1;durP2;ratioP2;P2;SDS_P1;SDS_P2;PMS_P1;PMS_P2;Temp;Humidity;BMP_temperature;BMP_pressure;BME280_temperature;BME280_humidity;BME280_pressure;Samples;Min_cycle;Max_cycle;Signal;HPM_P1;HPM_P2
2023/04/28 00:00:49;;;;;;;9.18;6.50;;;4.30;64.00;;;;;;5051328;28;20041;-57
2023/04/28 00:03:15;;;;;;;10.07;7.05;;;4.30;61.30;;;;;;5051247;28;20024;-57
2023/04/28 00:05:41;;;;;;;9.93;6.57;;;4.30;60.00;;;;;;5051443;28;20498;-57
2023/04/28 00:08:07;;;;;;;7.78;6.47;;;4.30;61.00;;;;;;5051165;28;20059;-58
2023/04/28 00:10:33;;;;;;;9.30;6.40;;;4.20;64.60;;;;;;5051380;28;20020;-57
2023/04/28 00:12:59;;;;;;;8.48;6.10;;;4.30;64.30;;;;;;5051246;28;20147;-59
2023/04/28 00:15:24;;;;;;;8.68;6.40;;;4.20;61.50;;;;;;5051263;28;20563;-57
2023/04/28 00:17:50;;;;;;;7.07;6.22;;;4.20;67.10;;;;;;5051313;28;20104;-57
2023/04/28 00:20:16;;;;;;;7.55;6.68;;;4.20;67.70;;;;;;5051055;28;20028;-57
2023/04/28 00:22:42;;;;;;;9.10;6.80;;;4.10;67.80;;;;;;5051230;28;20021;-58
2023/04/28 00:25:08;;;;;;;7.53;6.10;;;4.10;72.00;;;;;;5052748;28;20036;-57
2023/04/28 00:27:34;;;;;;;12.00;6.25;;;4.20;71.50;;;;;;5069728;28;20037;-58
2023/04/28 00:30:00;;;;;;;14.82;7.32;;;4.20;74.50;;;;;;5071034;28;20033;-57
2023/04/28 00:32:26;;;;;;;9.55;6.75;;;4.20;74.50;;;;;;5071280;28;20438;-57
2023/04/28 00:34:52;;;;;;;12.43;6.90;;;4.30;74.60;;;;;;5071232;28;20104;-57
2023/04/28 00:37:20;;;;;;;9.93;7.65;;;4.20;69.40;;;;;;5070817;28;20013;-57
2023/04/28 00:39:46;;;;;;;7.45;6.75;;;4.20;69.00;;;;;;5071171;28;20055;-57
2023/04/28 00:42:15;;;;;;;9.88;6.88;;;4.20;69.30;;;;;;5070943;28;20063;-56
2023/04/28 00:44:40;;;;;;;12.48;7.05;;;4.20;71.20;;;;;;5071012;28;20103;-58
2023/04/28 00:47:08;;;;;;;7.22;6.53;;;4.10;72.40;;;;;;5070946;28;20107;-58
2023/04/28 00:49:35;;;;;;;7.90;7.10;;;4.10;76.10;;;;;;5070888;28;20033;-58
2023/04/28 00:52:05;;;;;;;14.48;7.70;;;4.10;76.40;;;;;;5071683;28;20028;-56
2023/04/28 00:54:35;;;;;;;8.95;6.93;;;4.10;74.30;;;;;;5074735;28;20031;-56
2023/04/28 00:57:04;;;;;;;9.80;7.30;;;4.10;70.30;;;;;;5074535;28;20020;-58
2023/04/28 00:59:30;;;;;;;8.70;6.13;;;4.10;68.60;;;;;;5074518;28;20024;-56
2023/04/28 01:01:56;;;;;;;7.40;6.47;;;4.10;65.20;;;;;;5074263;28;20655;-57
2023/04/28 01:04:22;;;;;;;11.27;7.43;;;4.10;69.50;;;;;;5074311;28;20108;-56
2023/04/28 01:06:52;;;;;;;11.57;7.63;;;4.10;71.20;;;;;;5074416;28;20021;-56
2023/04/28 01:09:18;;;;;;;9.88;7.35;;;4.10;69.20;;;;;;5073947;28;20078;-58
2023/04/28 01:11:44;;;;;;;13.77;7.10;;;4.10;73.60;;;;;;5074485;28;20029;-58
2023/04/28 01:14:09;;;;;;;10.15;7.00;;;4.10;73.90;;;;;;5074172;28;20467;-58
2023/04/28 01:16:37;;;;;;;11.00;7.30;;;4.00;72.70;;;;;;5074310;28;21027;-56
2023/04/28 01:19:07;;;;;;;9.40;6.82;;;4.00;76.00;;;;;;5074181;28;20024;-55
2023/04/28 01:21:33;;;;;;;12.32;7.57;;;4.10;81.70;;;;;;5073884;28;20024;-58
2023/04/28 01:23:59;;;;;;;16.08;9.18;;;4.20;82.30;;;;;;5074145;28;20055;-57
2023/04/28 01:26:25;;;;;;;12.07;7.85;;;4.20;83.90;;;;;;5073951;28;20019;-57
2023/04/28 01:28:51;;;;;;;9.88;6.88;;;4.30;83.70;;;;;;5073931;28;20021;-57
2023/04/28 01:31:17;;;;;;;8.50;6.78;;;4.30;78.80;;;;;;5073792;28;20546;-58
2023/04/28 01:33:42;;;;;;;16.23;7.05;;;4.30;77.40;;;;;;5073951;28;20021;-58
2023/04/28 01:36:08;;;;;;;10.48;7.18;;;4.30;74.30;;;;;;5072647;28;20058;-57
2023/04/28 01:38:34;;;;;;;9.65;7.47;;;4.30;76.40;;;;;;5073628;28;20036;-57
2023/04/28 01:41:02;;;;;;;10.45;8.18;;;4.30;76.60;;;;;;5073780;28;20020;-57
2023/04/28 01:43:28;;;;;;;11.15;6.70;;;4.20;76.70;;;;;;5073687;28;20020;-54
2023/04/28 01:45:54;;;;;;;9.82;6.68;;;4.30;76.80;;;;;;5073777;28;20028;-58
2023/04/28 01:48:19;;;;;;;7.93;6.80;;;4.30;76.70;;;;;;5073657;28;20376;-58
2023/04/28 01:50:45;;;;;;;10.90;7.70;;;4.20;74.80;;;;;;5073471;28;20029;-59
2023/04/28 01:53:11;;;;;;;9.13;8.07;;;4.20;75.10;;;;;;5073528;28;20467;-55
2023/04/28 01:55:39;;;;;;;13.02;8.93;;;4.10;75.60;;;;;;5073415;28;20037;-58
2023/04/28 01:58:06;;;;;;;11.45;7.57;;;4.20;84.20;;;;;;5073493;28;20078;-58
2023/04/28 02:00:31;;;;;;;14.35;7.40;;;4.20;84.30;;;;;;5073130;28;20048;-55
2023/04/28 02:02:57;;;;;;;13.98;9.98;;;4.20;82.40;;;;;;5072906;28;20483;-58
2023/04/28 02:05:23;;;;;;;10.38;7.72;;;4.30;80.90;;;;;;5072448;28;20056;-56
2023/04/28 02:07:48;;;;;;;9.95;7.45;;;4.30;80.70;;;;;;5073266;28;20020;-58
2023/04/28 02:10:14;;;;;;;8.20;6.93;;;4.30;81.90;;;;;;5072983;28;20020;-56
2023/04/28 02:12:41;;;;;;;9.57;7.25;;;4.30;80.40;;;;;;5072998;28;20025;-58
2023/04/28 02:15:08;;;;;;;9.27;7.53;;;4.30;81.40;;;;;;5073239;28;20568;-56
2023/04/28 02:17:33;;;;;;;13.98;6.97;;;4.30;80.20;;;;;;5073074;28;20107;-56
2023/04/28 02:19:59;;;;;;;11.98;6.97;;;4.40;81.70;;;;;;5072909;28;20131;-57
2023/04/28 02:22:25;;;;;;;10.45;7.43;;;4.40;81.50;;;;;;5072648;28;20028;-55
2023/04/28 02:24:51;;;;;;;9.27;8.10;;;4.40;82.50;;;;;;5072888;28;20028;-59
2023/04/28 02:27:17;;;;;;;11.23;7.47;;;4.40;80.30;;;;;;5073088;28;20025;-57
2023/04/28 02:29:42;;;;;;;9.10;6.88;;;4.40;79.80;;;;;;5072735;28;20078;-57
2023/04/28 02:32:08;;;;;;;9.18;7.22;;;4.40;81.50;;;;;;5072752;28;20017;-58
2023/04/28 02:34:34;;;;;;;10.00;7.45;;;4.50;80.70;;;;;;5071152;28;20021;-57
2023/04/28 02:37:00;;;;;;;8.05;7.22;;;4.50;81.50;;;;;;5072695;28;20025;-55
2023/04/28 02:39:26;;;;;;;8.48;7.47;;;4.60;77.30;;;;;;5071050;28;20028;-55
2023/04/28 02:41:55;;;;;;;8.52;7.38;;;4.60;70.20;;;;;;5072710;28;20056;-58
2023/04/28 02:44:21;;;;;;;10.73;7.30;;;4.50;74.00;;;;;;5072378;28;20066;-57
2023/04/28 02:46:47;;;;;;;10.50;7.75;;;4.40;76.70;;;;;;5072669;28;20037;-57
2023/04/28 02:49:13;;;;;;;14.32;8.30;;;4.40;83.30;;;;;;5072291;28;20028;-57
2023/04/28 02:51:39;;;;;;;15.07;7.78;;;4.40;85.40;;;;;;5071002;28;20017;-54
2023/04/28 02:54:04;;;;;;;12.18;7.60;;;4.40;85.70;;;;;;5072348;28;20481;-57
2023/04/28 02:56:30;;;;;;;9.77;7.40;;;4.50;83.90;;;;;;5072205;28;20036;-58
2023/04/28 02:58:56;;;;;;;12.23;7.78;;;4.50;83.60;;;;;;5072247;28;20031;-55
2023/04/28 03:01:22;;;;;;;14.88;7.82;;;4.40;83.20;;;;;;5071871;28;20474;-57
2023/04/28 03:03:48;;;;;;;12.38;7.88;;;4.40;83.90;;;;;;5072292;28;20021;-58
2023/04/28 03:06:14;;;;;;;12.00;8.02;;;4.40;86.10;;;;;;5072106;28;20028;-58
2023/04/28 03:08:40;;;;;;;11.50;7.78;;;4.40;87.40;;;;;;5072210;28;20052;-56
2023/04/28 03:11:05;;;;;;;13.50;8.65;;;4.50;87.90;;;;;;5071999;28;20494;-57
2023/04/28 03:13:31;;;;;;;13.55;8.48;;;4.50;87.50;;;;;;5072043;28;20039;-59
2023/04/28 03:15:57;;;;;;;10.05;7.78;;;4.50;84.30;;;;;;5071595;28;20016;-58
2023/04/28 03:18:23;;;;;;;9.23;8.25;;;4.50;87.10;;;;;;5071630;28;20029;-57
2023/04/28 03:20:49;;;;;;;11.60;7.97;;;4.60;86.10;;;;;;5071852;28;20036;-57
2023/04/28 03:23:15;;;;;;;10.38;7.40;;;4.60;86.10;;;;;;5071960;28;20044;-58
2023/04/28 03:25:40;;;;;;;7.93;7.13;;;4.70;86.30;;;;;;5070560;28;20403;-58
2023/04/28 03:28:06;;;;;;;12.75;7.70;;;4.80;84.50;;;;;;5071771;28;20031;-58
2023/04/28 03:30:32;;;;;;;11.82;7.53;;;4.80;83.10;;;;;;5071480;28;20376;-58
2023/04/28 03:32:58;;;;;;;17.23;7.32;;;4.80;85.10;;;;;;5071568;28;20016;-58
2023/04/28 03:35:23;;;;;;;13.15;6.50;;;4.90;85.20;;;;;;5071707;28;20048;-58
2023/04/28 03:37:49;;;;;;;12.30;7.78;;;4.90;82.70;;;;;;5071736;28;20077;-56
2023/04/28 03:40:15;;;;;;;9.45;7.75;;;4.80;83.20;;;;;;5071468;28;20069;-58
2023/04/28 03:42:41;;;;;;;15.07;8.20;;;4.90;85.40;;;;;;5071955;28;20594;-58
2023/04/28 03:45:07;;;;;;;8.57;7.32;;;4.90;85.20;;;;;;5071846;28;20032;-57
2023/04/28 03:47:33;;;;;;;13.10;6.85;;;4.90;84.30;;;;;;5071348;28;20040;-57
2023/04/28 03:49:59;;;;;;;11.32;7.28;;;4.90;83.60;;;;;;5071416;28;20028;-58
2023/04/28 03:52:25;;;;;;;22.27;9.00;;;4.80;82.80;;;;;;5071577;28;20029;-57
2023/04/28 03:54:50;;;;;;;10.27;8.43;;;4.80;83.80;;;;;;5070180;28;20020;-57
2023/04/28 03:57:16;;;;;;;13.43;8.02;;;4.70;81.90;;;;;;5071271;28;20025;-56
2023/04/28 03:59:42;;;;;;;8.82;7.70;;;4.70;84.60;;;;;;5071580;28;20665;-57
2023/04/28 04:02:08;;;;;;;11.57;8.35;;;4.70;86.30;;;;;;5071483;28;20085;-57
2023/04/28 04:04:33;;;;;;;10.80;8.45;;;4.70;84.00;;;;;;5071308;28;20100;-55
2023/04/28 04:07:00;;;;;;;15.45;8.63;;;4.70;84.60;;;;;;5071562;28;20086;-55
2023/04/28 04:09:25;;;;;;;10.30;8.20;;;4.70;84.80;;;;;;5071118;28;20419;-54
2023/04/28 04:11:51;;;;;;;12.75;8.27;;;4.70;82.70;;;;;;5071451;28;20041;-57
2023/04/28 04:14:17;;;;;;;9.98;7.93;;;4.80;84.20;;;;;;5071096;28;20051;-57
2023/04/28 04:16:42;;;;;;;12.00;8.05;;;4.80;84.40;;;;;;5070000;28;20062;-57
2023/04/28 04:19:08;;;;;;;10.10;8.57;;;4.80;82.70;;;;;;5071152;28;20025;-57
2023/04/28 04:21:34;;;;;;;9.05;7.63;;;4.80;82.80;;;;;;5071053;28;20498;-56
2023/04/28 04:24:00;;;;;;;12.68;8.32;;;4.90;84.80;;;;;;5071322;28;20036;-58
2023/04/28 04:26:26;;;;;;;12.10;8.38;;;5.00;84.50;;;;;;5071062;28;20025;-57
2023/04/28 04:28:51;;;;;;;12.02;8.70;;;5.00;82.60;;;;;;5074888;28;20039;-55
2023/04/28 04:31:18;;;;;;;12.43;8.32;;;5.10;79.20;;;;;;5074825;28;20024;-56
2023/04/28 04:33:44;;;;;;;8.68;7.60;;;5.00;80.20;;;;;;5075108;28;20047;-58
2023/04/28 04:36:10;;;;;;;9.75;7.40;;;5.10;83.10;;;;;;5075041;28;20348;-58
2023/04/28 04:38:36;;;;;;;13.45;7.63;;;5.20;85.10;;;;;;5074746;28;20548;-54
2023/04/28 04:41:01;;;;;;;12.48;8.05;;;5.40;80.60;;;;;;5074952;28;20044;-58
2023/04/28 04:43:27;;;;;;;10.50;7.90;;;5.30;74.70;;;;;;5073234;28;20020;-58
2023/04/28 04:45:53;;;;;;;12.30;7.93;;;5.30;76.10;;;;;;5073591;28;20021;-56
2023/04/28 04:48:19;;;;;;;12.90;7.97;;;5.30;80.40;;;;;;5074448;28;20037;-58
2023/04/28 04:50:45;;;;;;;15.55;8.68;;;5.40;81.70;;;;;;5074662;28;20031;-59
2023/04/28 04:53:11;;;;;;;12.98;8.90;;;5.40;81.20;;;;;;5074656;28;20020;-56
2023/04/28 04:55:37;;;;;;;14.52;8.20;;;5.50;79.30;;;;;;5074365;28;20039;-58
2023/04/28 04:58:03;;;;;;;10.02;7.50;;;5.50;81.80;;;;;;5074551;28;20032;-56
2023/04/28 05:00:28;;;;;;;13.32;7.80;;;5.60;80.10;;;;;;5074176;28;20045;-58
2023/04/28 05:02:54;;;;;;;14.60;8.68;;;5.70;80.10;;;;;;5071239;28;20471;-59
2023/04/28 05:05:19;;;;;;;16.08;8.60;;;5.70;83.60;;;;;;5074085;28;20034;-58
2023/04/28 05:07:45;;;;;;;17.08;9.18;;;5.90;83.20;;;;;;5074352;28;20028;-57
2023/04/28 05:10:11;;;;;;;8.60;7.30;;;6.10;82.90;;;;;;5073616;28;20060;-57
2023/04/28 05:12:37;;;;;;;19.02;7.65;;;6.10;75.90;;;;;;5084622;28;20028;-58
2023/04/28 05:15:05;;;;;;;14.63;8.60;;;6.30;76.40;;;;;;5093084;28;20024;-57
2023/04/28 05:17:31;;;;;;;11.07;8.00;;;6.30;70.00;;;;;;5093047;28;20594;-57
2023/04/28 05:19:56;;;;;;;16.20;8.20;;;6.30;67.00;;;;;;5072313;28;20017;-58
2023/04/28 05:22:22;;;;;;;18.05;7.97;;;6.50;71.00;;;;;;5072806;28;21135;-56
2023/04/28 05:24:48;;;;;;;19.80;8.90;;;6.50;69.60;;;;;;5073231;28;20036;-58
2023/04/28 05:27:14;;;;;;;18.38;9.50;;;6.70;71.70;;;;;;5072932;28;20044;-57
2023/04/28 05:29:42;;;;;;;18.30;9.55;;;6.70;68.40;;;;;;5072641;28;20393;-57
2023/04/28 05:32:08;;;;;;;17.95;10.20;;;6.80;72.50;;;;;;5071545;28;20024;-57
2023/04/28 05:34:34;;;;;;;22.42;10.05;;;7.00;72.70;;;;;;5072655;28;20032;-58
2023/04/28 05:37:00;;;;;;;12.50;9.32;;;7.20;67.80;;;;;;5071550;28;20031;-57
2023/04/28 05:39:25;;;;;;;10.90;7.05;;;7.30;59.50;;;;;;5072607;28;20028;-58
2023/04/28 05:41:51;;;;;;;12.10;7.25;;;7.50;65.50;;;;;;5073701;28;20099;-58
2023/04/28 05:44:17;;;;;;;8.25;6.63;;;7.60;52.80;;;;;;5073058;28;20051;-59
2023/04/28 05:46:42;;;;;;;15.18;7.70;;;7.70;45.00;;;;;;5073328;28;20375;-59
2023/04/28 05:49:09;;;;;;;12.68;8.15;;;7.60;38.90;;;;;;5072973;28;20025;-59
2023/04/28 05:51:34;;;;;;;16.10;8.95;;;7.50;59.80;;;;;;5072800;28;20556;-57
2023/04/28 05:54:00;;;;;;;10.43;8.02;;;7.50;66.50;;;;;;5071480;28;20024;-59
2023/04/28 05:56:26;;;;;;;12.73;8.35;;;7.60;65.50;;;;;;5073238;28;20103;-58
2023/04/28 05:58:52;;;;;;;25.08;11.82;;;7.50;75.40;;;;;;5073031;28;20428;-59
2023/04/28 06:01:17;;;;;;;17.88;13.15;;;7.60;75.90;;;;;;5072874;28;20041;-58
2023/04/28 06:03:44;;;;;;;23.50;14.80;;;7.80;68.90;;;;;;5073386;28;20344;-59
2023/04/28 06:06:10;;;;;;;20.05;14.55;;;7.90;70.80;;;;;;5073054;28;20074;-57
2023/04/28 06:08:36;;;;;;;16.63;11.93;;;8.00;63.90;;;;;;5072721;28;20403;-59
2023/04/28 06:11:02;;;;;;;13.52;10.02;;;8.10;44.10;;;;;;5072638;28;20364;-58
2023/04/28 06:13:28;;;;;;;12.23;8.77;;;8.30;49.60;;;;;;5072877;28;20033;-60
2023/04/28 06:15:54;;;;;;;19.00;10.65;;;8.40;43.40;;;;;;5071620;28;20108;-59
2023/04/28 06:18:20;;;;;;;20.27;11.82;;;8.50;56.80;;;;;;5072751;28;20044;-59
2023/04/28 06:20:45;;;;;;;15.02;11.38;;;8.50;27.10;;;;;;5072814;28;20056;-57
2023/04/28 06:23:11;;;;;;;18.10;11.30;;;8.60;21.50;;;;;;5072856;28;20024;-59
2023/04/28 06:25:37;;;;;;;17.38;11.68;;;8.70;17.20;;;;;;5073284;28;20032;-59
2023/04/28 06:28:03;;;;;;;14.43;11.82;;;8.80;17.10;;;;;;5072234;28;20017;-54
2023/04/28 06:30:28;;;;;;;20.35;11.48;;;8.90;17.20;;;;;;5072390;28;20025;-59
2023/04/28 06:32:56;;;;;;;17.02;11.93;;;9.00;9.60;;;;;;5072512;28;20021;-56
2023/04/28 06:35:22;;;;;;;18.15;11.80;;;8.90;12.70;;;;;;5072386;28;20532;-53
2023/04/28 06:37:48;;;;;;;22.90;12.68;;;8.90;6.20;;;;;;5072452;28;20024;-59
2023/04/28 06:40:13;;;;;;;25.13;11.40;;;8.80;9.70;;;;;;5070875;28;20538;-58
2023/04/28 06:42:39;;;;;;;16.05;10.63;;;8.90;13.30;;;;;;5072168;28;20104;-58
2023/04/28 06:45:05;;;;;;;14.50;11.73;;;9.00;10.00;;;;;;5071879;28;20032;-58
2023/04/28 06:47:31;;;;;;;24.75;12.38;;;9.00;17.00;;;;;;5072221;28;20060;-59
2023/04/28 06:49:57;;;;;;;18.02;11.23;;;9.00;17.00;;;;;;5071496;28;20067;-59
2023/04/28 06:52:22;;;;;;;17.73;11.38;;;9.10;11.70;;;;;;5072018;28;20058;-59
2023/04/28 06:54:49;;;;;;;15.65;10.27;;;9.10;7.40;;;;;;5072175;28;20029;-59
2023/04/28 06:57:15;;;;;;;23.90;12.32;;;9.10;13.00;;;;;;5070669;28;20013;-58
2023/04/28 06:59:42;;;;;;;21.52;10.65;;;9.10;12.50;;;;;;5071692;28;20369;-59
2023/04/28 07:02:09;;;;;;;17.13;11.95;;;9.10;10.20;;;;;;5071079;28;20020;-58
2023/04/28 07:04:35;;;;;;;15.90;11.32;;;9.00;1.00;;;;;;5070368;28;20689;-58
2023/04/28 07:07:01;;;;;;;13.40;10.35;;;9.10;8.10;;;;;;5071762;28;20040;-58
2023/04/28 07:09:27;;;;;;;20.45;10.73;;;9.00;14.40;;;;;;5072153;28;20052;-58
2023/04/28 07:11:52;;;;;;;23.25;12.57;;;9.00;11.50;;;;;;5071802;28;20052;-58
2023/04/28 07:14:18;;;;;;;16.77;13.00;;;8.90;20.00;;;;;;5071651;28;20078;-58
2023/04/28 07:16:43;;;;;;;20.13;11.32;;;9.00;32.60;;;;;;5071710;28;20111;-58
2023/04/28 07:19:09;;;;;;;15.98;11.45;;;9.00;31.00;;;;;;5071438;28;20576;-58
2023/04/28 07:21:35;;;;;;;21.52;13.60;;;9.00;33.20;;;;;;5071578;28;20063;-59
2023/04/28 07:24:00;;;;;;;17.85;11.23;;;9.10;28.60;;;;;;5071571;28;20099;-59
2023/04/28 07:26:26;;;;;;;16.95;11.45;;;9.10;26.10;;;;;;5072015;28;20514;-58
2023/04/28 07:28:52;;;;;;;16.33;11.45;;;9.10;27.30;;;;;;5071363;28;20021;-58
2023/04/28 07:31:18;;;;;;;19.35;11.75;;;9.10;35.40;;;;;;5071590;28;20020;-58
2023/04/28 07:33:43;;;;;;;19.00;12.27;;;9.10;38.60;;;;;;5071355;28;20452;-58
2023/04/28 07:36:09;;;;;;;20.55;11.45;;;9.10;40.00;;;;;;5071424;28;20023;-59
2023/04/28 07:38:35;;;;;;;13.85;11.60;;;9.20;31.40;;;;;;5071098;28;20468;-59
2023/04/28 07:41:02;;;;;;;19.02;12.52;;;9.20;46.20;;;;;;5071692;28;20028;-56
2023/04/28 07:43:28;;;;;;;18.73;13.02;;;9.30;47.70;;;;;;5071163;28;20016;-58
2023/04/28 07:45:53;;;;;;;19.95;12.70;;;9.40;51.10;;;;;;5071352;28;20495;-57
2023/04/28 07:48:19;;;;;;;17.73;11.75;;;9.50;50.20;;;;;;5071161;28;20029;-57
2023/04/28 07:50:45;;;;;;;19.30;13.35;;;9.60;44.80;;;;;;5071394;28;20024;-59
2023/04/28 07:53:11;;;;;;;16.15;12.60;;;9.70;45.70;;;;;;5070567;28;20399;-58
2023/04/28 07:55:37;;;;;;;20.13;11.95;;;9.70;45.30;;;;;;5071132;28;20554;-59
2023/04/28 07:58:03;;;;;;;16.45;12.23;;;9.70;42.80;;;;;;5071252;28;20020;-59
2023/04/28 08:00:29;;;;;;;17.02;12.93;;;9.90;44.60;;;;;;5071203;28;20068;-58
2023/04/28 08:02:56;;;;;;;14.35;12.43;;;10.10;48.60;;;;;;5075169;28;20034;-59
2023/04/28 08:05:22;;;;;;;16.48;12.90;;;10.10;39.50;;;;;;5075070;28;20406;-58
2023/04/28 08:07:47;;;;;;;16.40;11.35;;;10.30;32.30;;;;;;5075443;28;20040;-59
2023/04/28 08:10:13;;;;;;;12.73;10.80;;;10.40;6.70;;;;;;5074844;28;20029;-59
2023/04/28 08:12:40;;;;;;;19.02;11.60;;;10.80;21.60;;;;;;5074925;28;20106;-59
2023/04/28 08:15:09;;;;;;;17.33;10.27;;;11.00;7.50;;;;;;5073465;28;20111;-58
2023/04/28 08:17:34;;;;;;;20.83;12.25;;;11.30;10.20;;;;;;5075188;28;20027;-59
2023/04/28 08:20:00;;;;;;;18.80;11.60;;;11.30;1.00;;;;;;5073398;28;20024;-59
2023/04/28 08:22:25;;;;;;;15.00;11.55;;;11.60;1.00;;;;;;5074609;28;20029;-57
2023/04/28 08:24:51;;;;;;;20.55;10.70;;;11.70;1.00;;;;;;5074703;28;20024;-59
2023/04/28 08:27:17;;;;;;;28.23;22.48;;;11.90;1.00;;;;;;5074665;28;20025;-59
2023/04/28 08:29:43;;;;;;;25.55;14.05;;;11.80;1.00;;;;;;5074553;28;20036;-59
2023/04/28 08:32:08;;;;;;;17.65;10.45;;;12.10;1.00;;;;;;5074875;28;20056;-58
2023/04/28 08:34:34;;;;;;;16.73;10.98;;;12.10;1.00;;;;;;5074444;28;20020;-54
2023/04/28 08:37:00;;;;;;;14.38;9.20;;;12.10;1.00;;;;;;5074812;28;20379;-58
2023/04/28 08:39:26;;;;;;;20.35;11.15;;;12.10;1.00;;;;;;5074394;28;20052;-57
2023/04/28 08:41:52;;;;;;;26.90;16.83;;;12.10;1.00;;;;;;5074402;28;20034;-58
2023/04/28 08:44:18;;;;;;;26.17;13.15;;;12.00;1.00;;;;;;5072614;28;20029;-56
2023/04/28 08:46:45;;;;;;;21.45;10.27;;;12.20;1.00;;;;;;5074737;28;20039;-58
2023/04/28 08:49:22;;;;;;;16.70;9.07;;;12.50;1.00;;;;;;5074319;28;20024;-58
2023/04/28 08:51:57;;;;;;;12.02;8.98;;;12.40;99.90;;;;;;5074108;28;20494;-58
2023/04/28 08:54:29;;;;;;;13.90;7.22;;;12.70;1.00;;;;;;5074252;28;20028;-58
2023/04/28 08:56:56;;;;;;;13.00;7.93;;;12.60;1.00;;;;;;5074313;28;20017;-58
2023/04/28 08:59:22;;;;;;;15.95;10.48;;;12.50;1.00;;;;;;5074014;28;20052;-58
2023/04/28 09:01:48;;;;;;;14.18;8.85;;;12.60;1.00;;;;;;5073740;28;20040;-59
2023/04/28 09:04:16;;;;;;;11.05;7.97;;;12.60;99.90;;;;;;5073897;28;20070;-59
2023/04/28 09:06:42;;;;;;;18.25;7.78;;;12.70;99.90;;;;;;5073945;28;20042;-58
2023/04/28 09:09:29;;;;;;;14.48;9.07;;;12.90;99.90;;;;;;5074491;28;20702;-58
2023/04/28 09:11:58;;;;;;;13.20;8.80;;;13.30;99.90;;;;;;5073963;28;20024;-58
2023/04/28 09:14:28;;;;;;;222.38;104.72;;;13.40;99.90;;;;;;5073461;28;20031;-59
2023/04/28 09:16:55;;;;;;;18.20;11.93;;;13.60;99.90;;;;;;5073636;28;20028;-59
2023/04/28 09:19:21;;;;;;;11.73;7.28;;;13.50;99.90;;;;;;5074090;28;20395;-59
2023/04/28 09:21:48;;;;;;;26.08;18.15;;;13.60;99.90;;;;;;5083272;28;20035;-59
2023/04/28 09:24:29;;;;;;;20.48;15.88;;;13.60;99.90;;;;;;5094153;28;20509;-59
2023/04/28 09:26:54;;;;;;;33.25;24.50;;;13.70;99.90;;;;;;5072562;28;20389;-60
2023/04/28 09:29:20;;;;;;;13.05;8.70;;;13.70;99.90;;;;;;5073578;28;20024;-59
2023/04/28 09:31:46;;;;;;;33.08;19.65;;;13.70;99.90;;;;;;5073447;28;20138;-59
2023/04/28 09:34:12;;;;;;;16.48;10.43;;;13.70;1.00;;;;;;5073134;28;20021;-58
2023/04/28 09:36:37;;;;;;;13.80;9.23;;;13.60;99.90;;;;;;5080738;28;20528;-55
2023/04/28 09:39:03;;;;;;;21.90;8.20;;;13.70;99.90;;;;;;5093902;28;20016;-58
2023/04/28 09:41:36;;;;;;;12.50;8.57;;;13.60;99.90;;;;;;5091764;28;20063;-58
2023/04/28 09:44:15;;;;;;;17.52;14.65;;;13.50;99.90;;;;;;5086021;28;20028;-59
2023/04/28 09:46:45;;;;;;;19.15;9.05;;;13.50;99.90;;;;;;5073360;28;20077;-58
2023/04/28 09:49:14;;;;;;;12.40;7.53;;;13.40;99.90;;;;;;5073689;28;20025;-59
2023/04/28 09:51:40;;;;;;;14.57;7.75;;;13.50;99.90;;;;;;5072434;28;20052;-58
2023/04/28 09:54:06;;;;;;;15.27;8.95;;;13.70;99.90;;;;;;5072954;28;20024;-58
2023/04/28 09:56:34;;;;;;;13.68;8.45;;;13.60;99.90;;;;;;5078425;28;20021;-58
2023/04/28 09:59:01;;;;;;;17.23;8.60;;;13.60;99.90;;;;;;5093481;28;20111;-59
2023/04/28 10:01:31;;;;;;;19.25;10.00;;;13.70;99.90;;;;;;5091678;28;20085;-56
2023/04/28 10:03:58;;;;;;;14.77;9.43;;;13.60;99.90;;;;;;5093172;28;20028;-59
2023/04/28 10:06:24;;;;;;;11.90;7.50;;;13.60;99.90;;;;;;5092992;28;20024;-58
2023/04/28 10:08:51;;;;;;;16.80;7.93;;;13.60;93.20;;;;;;5082480;28;20471;-58
2023/04/28 10:11:16;;;;;;;12.32;7.97;;;13.80;99.90;;;;;;5075126;28;20073;-57
2023/04/28 10:13:43;;;;;;;9.00;7.10;;;14.00;53.90;;;;;;5093254;28;20115;-57
2023/04/28 10:16:10;;;;;;;11.68;7.13;;;14.20;72.70;;;;;;5092798;28;20490;-58
2023/04/28 10:18:37;;;;;;;10.45;6.45;;;14.10;99.90;;;;;;5092769;28;20054;-58
2023/04/28 10:21:04;;;;;;;23.15;9.50;;;14.00;1.00;;;;;;5092777;28;20017;-59
2023/04/28 10:23:55;;;;;;;14.30;8.88;;;14.20;1.00;;;;;;5091410;28;20506;-54
2023/04/28 10:26:26;;;;;;;14.57;7.13;;;13.90;1.00;;;;;;5081353;28;20021;-58
2023/04/28 10:28:52;;;;;;;10.73;7.32;;;13.80;1.00;;;;;;5092916;28;20028;-57
2023/04/28 10:31:22;;;;;;;13.18;8.35;;;13.80;56.50;;;;;;5092129;28;20390;-58
2023/04/28 10:33:48;;;;;;;15.77;7.75;;;13.90;99.90;;;;;;5092757;28;20043;-56
2023/04/28 10:36:47;;;;;;;14.27;7.57;;;13.90;99.90;;;;;;5092034;28;20148;-57
2023/04/28 10:39:13;;;;;;;9.57;7.82;;;14.00;99.90;;;;;;5092299;28;20105;-56
2023/04/28 10:41:38;;;;;;;12.95;7.65;;;14.00;99.90;;;;;;5092273;28;20024;-56
2023/04/28 10:44:28;;;;;;;10.43;6.97;;;14.00;99.90;;;;;;5073667;28;20024;-58
2023/04/28 10:47:08;;;;;;;10.18;7.85;;;14.10;99.90;;;;;;5077833;28;20539;-58
2023/04/28 10:49:58;;;;;;;10.75;8.45;;;14.10;99.90;;;;;;5091957;28;20024;-58
2023/04/28 10:52:35;;;;;;;12.77;8.20;;;13.80;1.00;;;;;;5091570;28;20024;-57
2023/04/28 10:55:26;;;;;;;12.65;7.72;;;13.90;1.00;;;;;;5092128;28;20020;-58
2023/04/28 10:58:24;;;;;;;11.43;7.43;;;14.00;1.00;;;;;;5091995;28;20106;-58
2023/04/28 11:00:52;;;;;;;16.73;7.55;;;13.90;99.90;;;;;;5058023;28;20379;-57
2023/04/28 11:04:03;;;;;;;12.20;8.55;;;13.90;1.00;;;;;;5074814;28;20372;-56
2023/04/28 11:06:33;;;;;;;10.07;7.75;;;13.70;1.00;;;;;;5069746;28;20068;-52
2023/04/28 11:09:12;;;;;;;15.88;9.43;;;13.70;1.00;;;;;;5071676;28;20058;-54
2023/04/28 11:11:39;;;;;;;9.27;7.15;;;13.50;1.00;;;;;;5071453;28;20028;-55
2023/04/28 11:14:17;;;;;;;11.40;8.10;;;13.60;1.00;;;;;;5071404;28;20040;-55
2023/04/28 11:16:49;;;;;;;12.40;8.45;;;13.60;1.00;;;;;;5071259;28;20054;-57
2023/04/28 11:19:19;;;;;;;14.27;8.57;;;13.50;1.00;;;;;;5089918;28;20066;-57
2023/04/28 11:21:47;;;;;;;14.77;9.13;;;13.50;1.00;;;;;;5089425;28;20046;-58
2023/04/28 11:24:12;;;;;;;16.83;9.70;;;13.10;1.00;;;;;;5063877;28;20072;-52
2023/04/28 11:26:39;;;;;;;16.85;9.27;;;13.00;9.80;;;;;;5041365;28;20029;-55
2023/04/28 11:29:06;;;;;;;13.57;9.73;;;12.90;9.00;;;;;;5040675;28;20619;-54
2023/04/28 11:31:32;;;;;;;13.80;10.48;;;12.70;3.70;;;;;;5040604;28;20357;-56
2023/04/28 11:34:06;;;;;;;17.67;10.05;;;12.60;36.70;;;;;;5041764;28;20080;-57
2023/04/28 11:36:39;;;;;;;19.50;9.75;;;12.80;28.30;;;;;;5040459;28;20415;-52
2023/04/28 11:39:07;;;;;;;15.07;11.00;;;13.00;18.30;;;;;;5040064;28;20041;-52
2023/04/28 11:41:37;;;;;;;15.25;9.55;;;13.00;3.50;;;;;;5040532;28;20029;-57
2023/04/28 11:44:13;;;;;;;11.32;9.13;;;13.00;1.00;;;;;;5040414;28;20047;-57
2023/04/28 11:46:52;;;;;;;18.15;8.98;;;13.10;1.00;;;;;;5042454;28;20025;-58
2023/04/28 11:49:19;;;;;;;15.95;11.13;;;13.10;1.00;;;;;;5041234;28;20056;-53
2023/04/28 11:51:47;;;;;;;38.53;22.17;;;13.20;1.00;;;;;;5039702;28;20025;-56
2023/04/28 11:54:13;;;;;;;32.30;21.23;;;13.10;1.00;;;;;;5040848;28;20301;-55
2023/04/28 11:56:43;;;;;;;16.73;10.35;;;13.00;28.40;;;;;;5040807;28;20029;-54
2023/04/28 11:59:11;;;;;;;14.57;9.95;;;12.90;4.60;;;;;;5040990;28;20064;-55
2023/04/28 12:01:51;;;;;;;19.77;10.90;;;12.90;16.20;;;;;;5039242;28;20119;-55
2023/04/28 12:04:35;;;;;;;16.45;11.82;;;12.90;16.40;;;;;;5039137;28;20025;-58
2023/04/28 12:07:11;;;;;;;;;;;12.90;23.20;;;;;;5039713;28;20060;-56
2023/04/28 12:09:39;;;;;;;16.77;10.70;;;12.80;27.20;;;;;;5038220;28;19917;-56
2023/04/28 12:12:10;;;;;;;15.35;12.77;;;12.70;40.60;;;;;;5039081;28;20776;-51
2023/04/28 12:15:06;;;;;;;21.17;14.77;;;12.60;53.20;;;;;;5039295;28;20037;-53
2023/04/28 12:17:41;;;;;;;15.75;12.38;;;12.60;47.70;;;;;;5039176;28;20021;-56
2023/04/28 12:20:09;;;;;;;19.13;11.75;;;12.60;40.20;;;;;;5038467;28;20078;-58
2023/04/28 12:22:49;;;;;;;19.63;11.43;;;12.60;44.80;;;;;;5040798;28;20083;-58
2023/04/28 12:25:18;;;;;;;16.10;12.02;;;12.60;30.20;;;;;;5038930;28;20049;-56
2023/04/28 12:28:03;;;;;;;17.13;13.63;;;12.60;40.00;;;;;;5040623;28;20033;-57
2023/04/28 12:30:30;;;;;;;22.45;14.25;;;12.50;45.10;;;;;;5039980;28;20037;-57
2023/04/28 12:32:56;;;;;;;19.85;14.30;;;12.40;72.40;;;;;;5040472;28;20040;-58
2023/04/28 12:35:24;;;;;;;19.33;13.77;;;12.30;74.70;;;;;;5038465;28;20369;-55
2023/04/28 12:37:50;;;;;;;21.13;12.70;;;12.20;75.80;;;;;;5040407;28;20410;-56
2023/04/28 12:40:16;;;;;;;24.15;13.80;;;12.20;75.60;;;;;;5040548;28;20074;-54
2023/04/28 12:42:42;;;;;;;15.70;13.70;;;12.10;78.80;;;;;;5039405;28;20028;-55
2023/04/28 12:45:08;;;;;;;16.25;13.73;;;12.00;83.50;;;;;;5038811;28;20052;-55